sensor_id;sensor_type;location;lat;lon;timestamp;P1;durP1;ratioP1;P2;durP2;ratioP2
80567;SDS011;69922;45.656;25.586;2023-07-20T00:00:35;8.20;;;7.00;;
80567;SDS011;69922;45.656;25.586;2023-07-20T00:02:07;11.80;;;7.30;;
80567;SDS011;69922;45.656;25.586;2023-07-20T00:03:28;8.80;;;7.90;;
80567;SDS011;69922;45.656;25.586;2023-07-20T00:04:33;9.70;;;7.70;;
80567;SDS011;69922;45.656;25.586;2023-07-20T00:05:38;11.30;;;8.80;;
80567;SDS011;69922;45.656;25.586;2023-07-20T00:06:41;10.00;;;9.00;;
80567;SDS011;69922;45.656;25.586;2023-07-20T00:07:45;11.40;;;8.90;;
80567;SDS011;69922;45.656;25.586;2023-07-20T00:08:48;10.20;;;9.10;;
80567;SDS011;69922;45.656;25.586;2023-07-20T00:09:53;12.30;;;9.00;;
80567;SDS011;69922;45.656;25.586;2023-07-20T00:10:57;11.60;;;8.80;;
80567;SDS011;69922;45.656;25.586;2023-07-20T00:12:01;10.50;;;9.00;;
80567;SDS011;69922;45.656;25.586;2023-07-20T00:13:05;10.20;;;8.40;;
80567;SDS011;69922;45.656;25.586;2023-07-20T00:14:08;11.10;;;7.60;;
80567;SDS011;69922;45.656;25.586;2023-07-20T00:15:12;8.90;;;7.40;;
80567;SDS011;69922;45.656;25.586;2023-07-20T00:16:15;9.60;;;7.50;;
80567;SDS011;69922;45.656;25.586;2023-07-20T00:17:19;8.60;;;7.70;;
80567;SDS011;69922;45.656;25.586;2023-07-20T00:18:22;10.60;;;7.90;;
80567;SDS011;69922;45.656;25.586;2023-07-20T00:19:26;9.20;;;7.30;;
80567;SDS011;69922;45.656;25.586;2023-07-20T00:20:30;9.40;;;8.00;;
80567;SDS011;69922;45.656;25.586;2023-07-20T00:21:33;13.50;;;8.60;;
80567;SDS011;69922;45.656;25.586;2023-07-20T00:22:36;10.50;;;8.20;;
80567;SDS011;69922;45.656;25.586;2023-07-20T00:23:39;11.40;;;8.20;;
80567;SDS011;69922;45.656;25.586;2023-07-20T00:24:43;9.40;;;8.40;;
80567;SDS011;69922;45.656;25.586;2023-07-20T00:25:46;9.50;;;8.40;;
80567;SDS011;69922;45.656;25.586;2023-07-20T00:26:50;10.50;;;8.70;;
80567;SDS011;69922;45.656;25.586;2023-07-20T00:27:54;12.70;;;8.40;;
80567;SDS011;69922;45.656;25.586;2023-07-20T00:28:57;11.30;;;8.30;;
80567;SDS011;69922;45.656;25.586;2023-07-20T00:30:01;10.10;;;8.20;;
80567;SDS011;69922;45.656;25.586;2023-07-20T00:31:05;9.00;;;8.10;;
80567;SDS011;69922;45.656;25.586;2023-07-20T00:32:09;12.10;;;8.30;;
80567;SDS011;69922;45.656;25.586;2023-07-20T00:33:12;9.50;;;8.20;;
80567;SDS011;69922;45.656;25.586;2023-07-20T00:34:20;14.80;;;8.70;;
80567;SDS011;69922;45.656;25.586;2023-07-20T00:35:24;15.30;;;10.50;;
80567;SDS011;69922;45.656;25.586;2023-07-20T00:36:27;10.80;;;9.30;;
80567;SDS011;69922;45.656;25.586;2023-07-20T00:37:30;12.00;;;9.40;;
80567;SDS011;69922;45.656;25.586;2023-07-20T00:38:33;11.90;;;9.80;;
80567;SDS011;69922;45.656;25.586;2023-07-20T00:39:36;12.40;;;9.50;;
80567;SDS011;69922;45.656;25.586;2023-07-20T00:40:40;9.60;;;8.50;;
80567;SDS011;69922;45.656;25.586;2023-07-20T00:41:44;12.70;;;9.20;;
80567;SDS011;69922;45.656;25.586;2023-07-20T00:42:48;12.50;;;8.90;;
80567;SDS011;69922;45.656;25.586;2023-07-20T00:43:52;12.20;;;9.30;;
80567;SDS011;69922;45.656;25.586;2023-07-20T00:44:55;10.90;;;8.80;;
80567;SDS011;69922;45.656;25.586;2023-07-20T00:45:58;12.50;;;9.40;;
80567;SDS011;69922;45.656;25.586;2023-07-20T00:47:02;13.80;;;9.40;;
80567;SDS011;69922;45.656;25.586;2023-07-20T00:48:08;11.20;;;9.60;;
80567;SDS011;69922;45.656;25.586;2023-07-20T00:49:11;11.10;;;9.70;;
80567;SDS011;69922;45.656;25.586;2023-07-20T00:50:14;12.00;;;8.90;;
80567;SDS011;69922;45.656;25.586;2023-07-20T00:51:18;10.90;;;9.40;;
80567;SDS011;69922;45.656;25.586;2023-07-20T00:52:23;10.80;;;9.10;;
80567;SDS011;69922;45.656;25.586;2023-07-20T00:53:31;10.30;;;8.00;;
80567;SDS011;69922;45.656;25.586;2023-07-20T00:54:34;15.60;;;11.10;;
80567;SDS011;69922;45.656;25.586;2023-07-20T00:55:39;13.40;;;11.70;;
80567;SDS011;69922;45.656;25.586;2023-07-20T00:56:43;14.80;;;11.00;;
80567;SDS011;69922;45.656;25.586;2023-07-20T00:57:48;13.40;;;11.30;;
80567;SDS011;69922;45.656;25.586;2023-07-20T00:58:52;13.30;;;10.10;;
80567;SDS011;69922;45.656;25.586;2023-07-20T00:59:56;14.40;;;11.00;;
80567;SDS011;69922;45.656;25.586;2023-07-20T01:01:00;12.10;;;10.50;;
80567;SDS011;69922;45.656;25.586;2023-07-20T01:02:04;13.30;;;9.70;;
80567;SDS011;69922;45.656;25.586;2023-07-20T01:03:08;13.40;;;10.30;;
80567;SDS011;69922;45.656;25.586;2023-07-20T01:04:12;13.90;;;9.30;;
80567;SDS011;69922;45.656;25.586;2023-07-20T01:05:16;13.00;;;9.30;;
80567;SDS011;69922;45.656;25.586;2023-07-20T01:06:23;10.60;;;9.50;;
80567;SDS011;69922;45.656;25.586;2023-07-20T01:07:32;13.20;;;9.60;;
80567;SDS011;69922;45.656;25.586;2023-07-20T01:08:43;11.20;;;9.80;;
80567;SDS011;69922;45.656;25.586;2023-07-20T01:09:58;13.40;;;9.30;;
80567;SDS011;69922;45.656;25.586;2023-07-20T01:11:12;13.20;;;9.60;;
80567;SDS011;69922;45.656;25.586;2023-07-20T01:12:22;11.50;;;9.50;;
80567;SDS011;69922;45.656;25.586;2023-07-20T01:13:33;11.00;;;9.00;;
80567;SDS011;69922;45.656;25.586;2023-07-20T01:14:38;11.70;;;10.20;;
80567;SDS011;69922;45.656;25.586;2023-07-20T01:15:42;12.10;;;10.20;;
80567;SDS011;69922;45.656;25.586;2023-07-20T01:16:51;14.90;;;10.00;;
80567;SDS011;69922;45.656;25.586;2023-07-20T01:17:54;12.30;;;10.40;;
80567;SDS011;69922;45.656;25.586;2023-07-20T01:19:00;13.40;;;10.50;;
80567;SDS011;69922;45.656;25.586;2023-07-20T01:20:04;11.80;;;10.10;;
80567;SDS011;69922;45.656;25.586;2023-07-20T01:21:13;13.30;;;9.90;;
80567;SDS011;69922;45.656;25.586;2023-07-20T01:22:32;11.60;;;9.30;;
80567;SDS011;69922;45.656;25.586;2023-07-20T01:24:04;10.30;;;8.40;;
80567;SDS011;69922;45.656;25.586;2023-07-20T01:25:27;11.00;;;8.00;;
80567;SDS011;69922;45.656;25.586;2023-07-20T01:29:54;10.60;;;8.50;;
80567;SDS011;69922;45.656;25.586;2023-07-20T01:31:17;10.70;;;9.20;;
80567;SDS011;69922;45.656;25.586;2023-07-20T01:32:24;15.20;;;10.00;;
80567;SDS011;69922;45.656;25.586;2023-07-20T01:33:29;11.70;;;9.50;;
80567;SDS011;69922;45.656;25.586;2023-07-20T01:34:36;13.80;;;9.50;;
80567;SDS011;69922;45.656;25.586;2023-07-20T01:35:43;12.20;;;9.90;;
80567;SDS011;69922;45.656;25.586;2023-07-20T01:36:50;11.80;;;8.90;;
80567;SDS011;69922;45.656;25.586;2023-07-20T01:37:56;10.50;;;9.40;;
80567;SDS011;69922;45.656;25.586;2023-07-20T01:39:02;14.30;;;8.90;;
80567;SDS011;69922;45.656;25.586;2023-07-20T01:40:08;11.80;;;10.10;;
80567;SDS011;69922;45.656;25.586;2023-07-20T01:41:14;8.90;;;8.00;;
80567;SDS011;69922;45.656;25.586;2023-07-20T01:42:18;11.50;;;8.80;;
80567;SDS011;69922;45.656;25.586;2023-07-20T01:43:22;13.10;;;8.70;;
80567;SDS011;69922;45.656;25.586;2023-07-20T01:44:25;13.40;;;9.00;;
80567;SDS011;69922;45.656;25.586;2023-07-20T01:45:29;9.00;;;8.00;;
80567;SDS011;69922;45.656;25.586;2023-07-20T01:46:33;10.60;;;8.40;;
80567;SDS011;69922;45.656;25.586;2023-07-20T01:47:37;10.90;;;9.60;;
80567;SDS011;69922;45.656;25.586;2023-07-20T01:48:41;12.50;;;10.00;;
80567;SDS011;69922;45.656;25.586;2023-07-20T01:49:44;13.40;;;10.30;;
80567;SDS011;69922;45.656;25.586;2023-07-20T01:50:48;11.10;;;9.70;;
80567;SDS011;69922;45.656;25.586;2023-07-20T01:51:51;12.60;;;9.60;;
80567;SDS011;69922;45.656;25.586;2023-07-20T01:52:54;13.70;;;10.20;;
80567;SDS011;69922;45.656;25.586;2023-07-20T01:53:59;11.10;;;10.00;;
80567;SDS011;69922;45.656;25.586;2023-07-20T01:55:04;11.80;;;9.40;;
80567;SDS011;69922;45.656;25.586;2023-07-20T01:56:09;14.60;;;10.00;;
80567;SDS011;69922;45.656;25.586;2023-07-20T01:57:15;10.50;;;9.20;;
80567;SDS011;69922;45.656;25.586;2023-07-20T01:58:18;11.10;;;8.70;;
80567;SDS011;69922;45.656;25.586;2023-07-20T01:59:21;12.40;;;9.10;;
80567;SDS011;69922;45.656;25.586;2023-07-20T02:00:25;11.10;;;9.10;;
80567;SDS011;69922;45.656;25.586;2023-07-20T02:01:28;10.10;;;8.10;;
80567;SDS011;69922;45.656;25.586;2023-07-20T02:02:32;9.50;;;8.50;;
80567;SDS011;69922;45.656;25.586;2023-07-20T02:03:35;10.40;;;8.70;;
80567;SDS011;69922;45.656;25.586;2023-07-20T02:04:38;10.10;;;7.80;;
80567;SDS011;69922;45.656;25.586;2023-07-20T02:05:43;10.50;;;7.70;;
80567;SDS011;69922;45.656;25.586;2023-07-20T02:06:46;11.40;;;8.50;;
80567;SDS011;69922;45.656;25.586;2023-07-20T02:07:50;11.90;;;9.10;;
80567;SDS011;69922;45.656;25.586;2023-07-20T02:08:53;12.50;;;9.70;;
80567;SDS011;69922;45.656;25.586;2023-07-20T02:09:57;13.70;;;10.40;;
80567;SDS011;69922;45.656;25.586;2023-07-20T02:11:00;12.10;;;9.50;;
80567;SDS011;69922;45.656;25.586;2023-07-20T02:12:07;11.30;;;10.10;;
80567;SDS011;69922;45.656;25.586;2023-07-20T02:13:12;11.30;;;10.10;;
80567;SDS011;69922;45.656;25.586;2023-07-20T02:14:15;14.80;;;10.50;;
80567;SDS011;69922;45.656;25.586;2023-07-20T02:15:19;11.20;;;9.70;;
80567;SDS011;69922;45.656;25.586;2023-07-20T02:16:23;10.80;;;8.80;;
80567;SDS011;69922;45.656;25.586;2023-07-20T02:17:28;9.80;;;8.30;;
80567;SDS011;69922;45.656;25.586;2023-07-20T02:18:32;11.50;;;8.30;;
80567;SDS011;69922;45.656;25.586;2023-07-20T02:19:36;10.30;;;8.70;;
80567;SDS011;69922;45.656;25.586;2023-07-20T02:20:41;13.30;;;8.40;;
80567;SDS011;69922;45.656;25.586;2023-07-20T02:21:45;8.80;;;8.00;;
80567;SDS011;69922;45.656;25.586;2023-07-20T02:22:48;9.80;;;7.90;;
80567;SDS011;69922;45.656;25.586;2023-07-20T02:23:52;11.30;;;8.20;;
80567;SDS011;69922;45.656;25.586;2023-07-20T02:24:56;10.00;;;8.70;;
80567;SDS011;69922;45.656;25.586;2023-07-20T02:25:59;12.60;;;9.60;;
80567;SDS011;69922;45.656;25.586;2023-07-20T02:27:03;12.00;;;9.30;;
80567;SDS011;69922;45.656;25.586;2023-07-20T02:28:11;12.30;;;10.30;;
80567;SDS011;69922;45.656;25.586;2023-07-20T02:29:16;14.60;;;10.10;;
80567;SDS011;69922;45.656;25.586;2023-07-20T02:30:20;10.90;;;9.70;;
80567;SDS011;69922;45.656;25.586;2023-07-20T02:31:23;11.20;;;9.20;;
80567;SDS011;69922;45.656;25.586;2023-07-20T02:32:30;10.90;;;8.80;;
80567;SDS011;69922;45.656;25.586;2023-07-20T02:33:34;11.90;;;9.10;;
80567;SDS011;69922;45.656;25.586;2023-07-20T02:34:37;11.10;;;8.20;;
80567;SDS011;69922;45.656;25.586;2023-07-20T02:35:41;11.70;;;8.20;;
80567;SDS011;69922;45.656;25.586;2023-07-20T02:36:44;11.40;;;8.00;;
80567;SDS011;69922;45.656;25.586;2023-07-20T02:37:49;12.50;;;8.20;;
80567;SDS011;69922;45.656;25.586;2023-07-20T02:38:53;14.30;;;8.00;;
80567;SDS011;69922;45.656;25.586;2023-07-20T02:39:57;11.40;;;7.60;;
80567;SDS011;69922;45.656;25.586;2023-07-20T02:41:00;10.80;;;8.00;;
80567;SDS011;69922;45.656;25.586;2023-07-20T02:42:05;8.60;;;7.30;;
80567;SDS011;69922;45.656;25.586;2023-07-20T02:43:13;10.70;;;8.10;;
80567;SDS011;69922;45.656;25.586;2023-07-20T02:44:16;11.10;;;9.20;;
80567;SDS011;69922;45.656;25.586;2023-07-20T02:45:19;9.80;;;8.70;;
80567;SDS011;69922;45.656;25.586;2023-07-20T02:46:23;10.50;;;9.10;;
80567;SDS011;69922;45.656;25.586;2023-07-20T02:47:27;10.20;;;8.50;;
80567;SDS011;69922;45.656;25.586;2023-07-20T02:48:32;10.60;;;9.10;;
80567;SDS011;69922;45.656;25.586;2023-07-20T02:49:35;12.10;;;9.40;;
80567;SDS011;69922;45.656;25.586;2023-07-20T02:50:38;10.90;;;9.10;;
80567;SDS011;69922;45.656;25.586;2023-07-20T02:51:41;11.20;;;8.20;;
80567;SDS011;69922;45.656;25.586;2023-07-20T02:52:44;10.90;;;8.40;;
80567;SDS011;69922;45.656;25.586;2023-07-20T02:53:48;10.10;;;8.00;;
80567;SDS011;69922;45.656;25.586;2023-07-20T02:54:52;10.20;;;7.10;;
80567;SDS011;69922;45.656;25.586;2023-07-20T02:55:55;11.00;;;7.50;;
80567;SDS011;69922;45.656;25.586;2023-07-20T02:56:59;9.20;;;7.40;;
80567;SDS011;69922;45.656;25.586;2023-07-20T02:58:03;8.20;;;7.30;;
80567;SDS011;69922;45.656;25.586;2023-07-20T02:59:07;7.90;;;7.10;;
80567;SDS011;69922;45.656;25.586;2023-07-20T03:00:12;10.90;;;7.20;;
80567;SDS011;69922;45.656;25.586;2023-07-20T03:01:18;9.10;;;7.50;;
80567;SDS011;69922;45.656;25.586;2023-07-20T03:02:21;10.20;;;9.00;;
80567;SDS011;69922;45.656;25.586;2023-07-20T03:03:25;10.90;;;9.30;;
80567;SDS011;69922;45.656;25.586;2023-07-20T03:04:29;10.70;;;8.70;;
80567;SDS011;69922;45.656;25.586;2023-07-20T03:05:33;12.30;;;8.90;;
80567;SDS011;69922;45.656;25.586;2023-07-20T03:06:36;11.60;;;9.10;;
80567;SDS011;69922;45.656;25.586;2023-07-20T03:07:40;9.60;;;8.20;;
80567;SDS011;69922;45.656;25.586;2023-07-20T03:08:45;9.10;;;7.30;;
80567;SDS011;69922;45.656;25.586;2023-07-20T03:09:50;10.20;;;7.40;;
80567;SDS011;69922;45.656;25.586;2023-07-20T03:10:53;9.90;;;7.90;;
80567;SDS011;69922;45.656;25.586;2023-07-20T03:11:57;9.20;;;6.40;;
80567;SDS011;69922;45.656;25.586;2023-07-20T03:13:00;10.90;;;7.10;;
80567;SDS011;69922;45.656;25.586;2023-07-20T03:14:04;8.50;;;7.00;;
80567;SDS011;69922;45.656;25.586;2023-07-20T03:15:09;8.20;;;7.20;;
80567;SDS011;69922;45.656;25.586;2023-07-20T03:16:13;10.40;;;9.10;;
80567;SDS011;69922;45.656;25.586;2023-07-20T03:17:21;13.20;;;9.00;;
80567;SDS011;69922;45.656;25.586;2023-07-20T03:18:25;9.60;;;8.00;;
80567;SDS011;69922;45.656;25.586;2023-07-20T03:19:29;11.30;;;9.30;;
80567;SDS011;69922;45.656;25.586;2023-07-20T03:20:32;11.00;;;8.30;;
80567;SDS011;69922;45.656;25.586;2023-07-20T03:21:38;10.90;;;9.00;;
80567;SDS011;69922;45.656;25.586;2023-07-20T03:22:51;11.90;;;8.40;;
80567;SDS011;69922;45.656;25.586;2023-07-20T03:23:56;11.80;;;8.40;;
80567;SDS011;69922;45.656;25.586;2023-07-20T03:24:59;8.50;;;7.00;;
80567;SDS011;69922;45.656;25.586;2023-07-20T03:26:02;9.80;;;7.60;;
80567;SDS011;69922;45.656;25.586;2023-07-20T03:27:06;8.00;;;6.90;;
80567;SDS011;69922;45.656;25.586;2023-07-20T03:28:10;8.70;;;7.00;;
80567;SDS011;69922;45.656;25.586;2023-07-20T03:29:14;8.80;;;7.80;;
80567;SDS011;69922;45.656;25.586;2023-07-20T03:30:18;9.30;;;7.80;;
80567;SDS011;69922;45.656;25.586;2023-07-20T03:31:23;9.70;;;7.80;;
80567;SDS011;69922;45.656;25.586;2023-07-20T03:32:26;11.40;;;8.30;;
80567;SDS011;69922;45.656;25.586;2023-07-20T03:33:31;12.50;;;9.20;;
80567;SDS011;69922;45.656;25.586;2023-07-20T03:34:37;12.10;;;8.30;;
80567;SDS011;69922;45.656;25.586;2023-07-20T03:35:43;11.60;;;10.30;;
80567;SDS011;69922;45.656;25.586;2023-07-20T03:36:46;10.00;;;8.30;;
80567;SDS011;69922;45.656;25.586;2023-07-20T03:37:50;10.60;;;8.80;;
80567;SDS011;69922;45.656;25.586;2023-07-20T03:38:53;11.80;;;10.00;;
80567;SDS011;69922;45.656;25.586;2023-07-20T03:39:57;13.00;;;8.80;;
80567;SDS011;69922;45.656;25.586;2023-07-20T03:41:00;11.10;;;8.90;;
80567;SDS011;69922;45.656;25.586;2023-07-20T03:42:04;11.20;;;8.60;;
80567;SDS011;69922;45.656;25.586;2023-07-20T03:43:09;11.90;;;9.30;;
80567;SDS011;69922;45.656;25.586;2023-07-20T03:44:12;11.40;;;9.40;;
80567;SDS011;69922;45.656;25.586;2023-07-20T03:45:16;13.00;;;9.70;;
80567;SDS011;69922;45.656;25.586;2023-07-20T03:46:20;11.50;;;10.10;;
80567;SDS011;69922;45.656;25.586;2023-07-20T03:47:24;12.60;;;9.90;;
80567;SDS011;69922;45.656;25.586;2023-07-20T03:48:27;11.30;;;9.20;;
80567;SDS011;69922;45.656;25.586;2023-07-20T03:49:31;13.10;;;9.80;;
80567;SDS011;69922;45.656;25.586;2023-07-20T03:50:34;14.20;;;9.80;;
80567;SDS011;69922;45.656;25.586;2023-07-20T03:51:37;15.10;;;10.20;;
80567;SDS011;69922;45.656;25.586;2023-07-20T03:52:40;13.80;;;9.30;;
80567;SDS011;69922;45.656;25.586;2023-07-20T03:53:44;13.10;;;9.90;;
80567;SDS011;69922;45.656;25.586;2023-07-20T03:54:47;14.30;;;9.30;;
80567;SDS011;69922;45.656;25.586;2023-07-20T03:55:51;12.90;;;9.20;;
80567;SDS011;69922;45.656;25.586;2023-07-20T03:56:55;13.00;;;9.00;;
80567;SDS011;69922;45.656;25.586;2023-07-20T03:57:58;13.70;;;10.00;;
80567;SDS011;69922;45.656;25.586;2023-07-20T03:59:02;13.30;;;9.60;;
80567;SDS011;69922;45.656;25.586;2023-07-20T04:00:07;17.60;;;11.60;;
80567;SDS011;69922;45.656;25.586;2023-07-20T04:01:12;14.40;;;10.50;;
80567;SDS011;69922;45.656;25.586;2023-07-20T04:02:16;13.10;;;9.80;;
80567;SDS011;69922;45.656;25.586;2023-07-20T04:03:19;16.70;;;11.90;;
80567;SDS011;69922;45.656;25.586;2023-07-20T04:04:27;15.50;;;11.90;;
80567;SDS011;69922;45.656;25.586;2023-07-20T04:05:31;14.80;;;12.00;;
80567;SDS011;69922;45.656;25.586;2023-07-20T04:06:34;16.40;;;11.60;;
80567;SDS011;69922;45.656;25.586;2023-07-20T04:07:39;13.70;;;11.10;;
80567;SDS011;69922;45.656;25.586;2023-07-20T04:08:42;16.70;;;10.80;;
80567;SDS011;69922;45.656;25.586;2023-07-20T04:09:46;16.00;;;10.40;;
80567;SDS011;69922;45.656;25.586;2023-07-20T04:10:50;14.10;;;10.20;;
80567;SDS011;69922;45.656;25.586;2023-07-20T04:11:53;12.90;;;10.30;;
80567;SDS011;69922;45.656;25.586;2023-07-20T04:12:57;13.20;;;10.10;;
80567;SDS011;69922;45.656;25.586;2023-07-20T04:14:00;12.80;;;11.20;;
80567;SDS011;69922;45.656;25.586;2023-07-20T04:15:05;12.80;;;10.60;;
80567;SDS011;69922;45.656;25.586;2023-07-20T04:16:14;15.50;;;11.60;;
80567;SDS011;69922;45.656;25.586;2023-07-20T04:17:18;17.00;;;11.40;;
80567;SDS011;69922;45.656;25.586;2023-07-20T04:18:22;15.10;;;12.00;;
80567;SDS011;69922;45.656;25.586;2023-07-20T04:19:25;13.80;;;10.80;;
80567;SDS011;69922;45.656;25.586;2023-07-20T04:20:28;13.30;;;11.20;;
80567;SDS011;69922;45.656;25.586;2023-07-20T04:21:32;13.00;;;11.20;;
80567;SDS011;69922;45.656;25.586;2023-07-20T04:22:41;14.10;;;10.10;;
80567;SDS011;69922;45.656;25.586;2023-07-20T04:23:45;16.30;;;12.30;;
80567;SDS011;69922;45.656;25.586;2023-07-20T04:24:49;16.10;;;11.10;;
80567;SDS011;69922;45.656;25.586;2023-07-20T04:25:53;14.30;;;10.90;;
80567;SDS011;69922;45.656;25.586;2023-07-20T04:26:56;12.90;;;10.20;;
80567;SDS011;69922;45.656;25.586;2023-07-20T04:28:00;12.60;;;10.10;;
80567;SDS011;69922;45.656;25.586;2023-07-20T04:29:03;11.50;;;10.30;;
80567;SDS011;69922;45.656;25.586;2023-07-20T04:30:09;14.60;;;11.20;;
80567;SDS011;69922;45.656;25.586;2023-07-20T04:31:14;12.10;;;10.80;;
80567;SDS011;69922;45.656;25.586;2023-07-20T04:32:18;12.40;;;11.00;;
80567;SDS011;69922;45.656;25.586;2023-07-20T04:33:22;14.90;;;11.60;;
80567;SDS011;69922;45.656;25.586;2023-07-20T04:34:25;18.40;;;11.30;;
80567;SDS011;69922;45.656;25.586;2023-07-20T04:35:49;13.20;;;11.50;;
80567;SDS011;69922;45.656;25.586;2023-07-20T04:36:53;18.30;;;11.50;;
80567;SDS011;69922;45.656;25.586;2023-07-20T04:37:56;13.30;;;10.50;;
80567;SDS011;69922;45.656;25.586;2023-07-20T04:39:00;11.90;;;10.30;;
80567;SDS011;69922;45.656;25.586;2023-07-20T04:40:05;15.10;;;10.70;;
80567;SDS011;69922;45.656;25.586;2023-07-20T04:41:10;14.90;;;11.30;;
80567;SDS011;69922;45.656;25.586;2023-07-20T04:42:14;14.80;;;10.90;;
80567;SDS011;69922;45.656;25.586;2023-07-20T04:43:18;11.60;;;10.40;;
80567;SDS011;69922;45.656;25.586;2023-07-20T04:44:21;15.00;;;11.20;;
80567;SDS011;69922;45.656;25.586;2023-07-20T04:45:25;14.00;;;11.20;;
80567;SDS011;69922;45.656;25.586;2023-07-20T04:46:28;18.30;;;11.40;;
80567;SDS011;69922;45.656;25.586;2023-07-20T04:47:32;22.80;;;12.20;;
80567;SDS011;69922;45.656;25.586;2023-07-20T04:48:35;17.70;;;12.30;;
80567;SDS011;69922;45.656;25.586;2023-07-20T04:49:44;13.10;;;11.80;;
80567;SDS011;69922;45.656;25.586;2023-07-20T04:50:47;14.70;;;10.80;;
80567;SDS011;69922;45.656;25.586;2023-07-20T04:51:51;13.60;;;10.80;;
80567;SDS011;69922;45.656;25.586;2023-07-20T04:52:55;15.60;;;9.90;;
80567;SDS011;69922;45.656;25.586;2023-07-20T04:53:59;13.50;;;10.30;;
80567;SDS011;69922;45.656;25.586;2023-07-20T04:55:03;16.10;;;10.60;;
80567;SDS011;69922;45.656;25.586;2023-07-20T04:56:16;13.30;;;10.20;;
80567;SDS011;69922;45.656;25.586;2023-07-20T04:57:20;12.90;;;10.30;;
80567;SDS011;69922;45.656;25.586;2023-07-20T04:58:28;16.80;;;10.40;;
80567;SDS011;69922;45.656;25.586;2023-07-20T04:59:31;13.10;;;10.30;;
80567;SDS011;69922;45.656;25.586;2023-07-20T05:00:37;14.60;;;10.80;;
80567;SDS011;69922;45.656;25.586;2023-07-20T05:01:41;14.10;;;10.50;;
80567;SDS011;69922;45.656;25.586;2023-07-20T05:02:44;20.20;;;11.10;;
80567;SDS011;69922;45.656;25.586;2023-07-20T05:03:50;14.60;;;11.30;;
80567;SDS011;69922;45.656;25.586;2023-07-20T05:04:56;15.00;;;11.70;;
80567;SDS011;69922;45.656;25.586;2023-07-20T05:05:59;17.50;;;11.90;;
80567;SDS011;69922;45.656;25.586;2023-07-20T05:07:02;17.20;;;11.20;;
80567;SDS011;69922;45.656;25.586;2023-07-20T05:08:08;15.80;;;12.20;;
80567;SDS011;69922;45.656;25.586;2023-07-20T05:09:12;13.10;;;11.00;;
80567;SDS011;69922;45.656;25.586;2023-07-20T05:10:16;17.20;;;11.80;;
80567;SDS011;69922;45.656;25.586;2023-07-20T05:11:20;13.60;;;10.60;;
80567;SDS011;69922;45.656;25.586;2023-07-20T05:12:24;14.50;;;11.30;;
80567;SDS011;69922;45.656;25.586;2023-07-20T05:13:28;17.00;;;11.40;;
80567;SDS011;69922;45.656;25.586;2023-07-20T05:14:31;18.10;;;10.50;;
80567;SDS011;69922;45.656;25.586;2023-07-20T05:15:34;16.40;;;11.50;;
80567;SDS011;69922;45.656;25.586;2023-07-20T05:16:37;16.60;;;11.40;;
80567;SDS011;69922;45.656;25.586;2023-07-20T05:17:41;16.70;;;10.60;;
80567;SDS011;69922;45.656;25.586;2023-07-20T05:18:45;16.90;;;10.70;;
80567;SDS011;69922;45.656;25.586;2023-07-20T05:19:48;13.90;;;12.30;;
80567;SDS011;69922;45.656;25.586;2023-07-20T05:20:52;15.80;;;11.00;;
80567;SDS011;69922;45.656;25.586;2023-07-20T05:21:57;12.60;;;10.20;;
80567;SDS011;69922;45.656;25.586;2023-07-20T05:23:00;13.00;;;9.70;;
80567;SDS011;69922;45.656;25.586;2023-07-20T05:24:07;15.70;;;9.50;;
80567;SDS011;69922;45.656;25.586;2023-07-20T05:25:11;14.00;;;8.80;;
80567;SDS011;69922;45.656;25.586;2023-07-20T05:26:19;15.40;;;8.80;;
80567;SDS011;69922;45.656;25.586;2023-07-20T05:27:23;14.40;;;9.50;;
80567;SDS011;69922;45.656;25.586;2023-07-20T05:28:27;14.80;;;9.70;;
80567;SDS011;69922;45.656;25.586;2023-07-20T05:29:30;13.40;;;10.40;;
80567;SDS011;69922;45.656;25.586;2023-07-20T05:30:36;16.50;;;10.70;;
80567;SDS011;69922;45.656;25.586;2023-07-20T05:31:39;12.60;;;9.50;;
80567;SDS011;69922;45.656;25.586;2023-07-20T05:32:43;13.00;;;9.10;;
80567;SDS011;69922;45.656;25.586;2023-07-20T05:33:49;15.70;;;9.10;;
80567;SDS011;69922;45.656;25.586;2023-07-20T05:34:53;13.30;;;9.20;;
80567;SDS011;69922;45.656;25.586;2023-07-20T05:35:57;16.80;;;9.20;;
80567;SDS011;69922;45.656;25.586;2023-07-20T05:37:01;10.80;;;8.00;;
80567;SDS011;69922;45.656;25.586;2023-07-20T05:38:05;13.10;;;7.80;;
80567;SDS011;69922;45.656;25.586;2023-07-20T05:39:08;12.80;;;8.10;;
80567;SDS011;69922;45.656;25.586;2023-07-20T05:40:14;13.00;;;7.80;;
80567;SDS011;69922;45.656;25.586;2023-07-20T05:41:21;11.40;;;8.30;;
80567;SDS011;69922;45.656;25.586;2023-07-20T05:42:25;13.00;;;8.80;;
80567;SDS011;69922;45.656;25.586;2023-07-20T05:43:29;13.40;;;8.10;;
80567;SDS011;69922;45.656;25.586;2023-07-20T05:44:34;11.00;;;8.30;;
80567;SDS011;69922;45.656;25.586;2023-07-20T05:45:37;11.60;;;8.90;;
80567;SDS011;69922;45.656;25.586;2023-07-20T05:46:43;11.40;;;8.50;;
80567;SDS011;69922;45.656;25.586;2023-07-20T05:48:00;12.90;;;8.80;;
80567;SDS011;69922;45.656;25.586;2023-07-20T05:49:03;14.30;;;8.90;;
80567;SDS011;69922;45.656;25.586;2023-07-20T05:50:07;12.60;;;7.50;;
80567;SDS011;69922;45.656;25.586;2023-07-20T05:51:12;11.00;;;7.40;;
80567;SDS011;69922;45.656;25.586;2023-07-20T05:52:15;10.80;;;7.30;;
80567;SDS011;69922;45.656;25.586;2023-07-20T05:53:19;15.20;;;9.80;;
80567;SDS011;69922;45.656;25.586;2023-07-20T05:54:23;10.80;;;8.00;;
80567;SDS011;69922;45.656;25.586;2023-07-20T05:55:28;12.90;;;10.00;;
80567;SDS011;69922;45.656;25.586;2023-07-20T05:56:31;13.00;;;8.80;;
80567;SDS011;69922;45.656;25.586;2023-07-20T05:57:34;13.00;;;8.30;;
80567;SDS011;69922;45.656;25.586;2023-07-20T05:58:42;13.00;;;9.00;;
80567;SDS011;69922;45.656;25.586;2023-07-20T05:59:45;12.50;;;7.30;;
80567;SDS011;69922;45.656;25.586;2023-07-20T06:00:49;11.20;;;7.40;;
80567;SDS011;69922;45.656;25.586;2023-07-20T06:01:53;12.00;;;7.30;;
80567;SDS011;69922;45.656;25.586;2023-07-20T06:02:56;13.80;;;7.20;;
80567;SDS011;69922;45.656;25.586;2023-07-20T06:04:00;9.60;;;5.80;;
80567;SDS011;69922;45.656;25.586;2023-07-20T06:05:06;9.10;;;5.30;;
80567;SDS011;69922;45.656;25.586;2023-07-20T06:06:12;6.50;;;4.00;;
80567;SDS011;69922;45.656;25.586;2023-07-20T06:07:16;10.80;;;5.10;;
80567;SDS011;69922;45.656;25.586;2023-07-20T06:08:19;9.90;;;5.00;;
80567;SDS011;69922;45.656;25.586;2023-07-20T06:09:22;12.10;;;6.00;;
80567;SDS011;69922;45.656;25.586;2023-07-20T06:10:25;8.20;;;4.70;;
80567;SDS011;69922;45.656;25.586;2023-07-20T06:11:29;8.60;;;4.60;;
80567;SDS011;69922;45.656;25.586;2023-07-20T06:12:32;8.30;;;4.70;;
80567;SDS011;69922;45.656;25.586;2023-07-20T06:13:36;10.00;;;5.20;;
80567;SDS011;69922;45.656;25.586;2023-07-20T06:14:40;9.20;;;5.00;;
80567;SDS011;69922;45.656;25.586;2023-07-20T06:15:43;9.90;;;5.40;;
80567;SDS011;69922;45.656;25.586;2023-07-20T06:16:47;12.00;;;5.60;;
80567;SDS011;69922;45.656;25.586;2023-07-20T06:17:51;8.00;;;5.40;;
80567;SDS011;69922;45.656;25.586;2023-07-20T06:19:00;10.50;;;5.70;;
80567;SDS011;69922;45.656;25.586;2023-07-20T06:20:06;8.30;;;5.60;;
80567;SDS011;69922;45.656;25.586;2023-07-20T06:21:12;8.70;;;5.30;;